Latest Weather Observations for Cunderdin Airport

IDW60801

Issued at 10:23 pm WST Thursday 18 April 2019 (issued every 10 minutes, with the page automatically refreshed every 10 minutes)

About weather observations | Map of weather stations | Latest weather observations for WA | Other Formats
Station Details ID: 010286 Name: CUNDERDIN AIRFIELD Lat: -31.62 Lon: 117.22 Height: 216.7 m
Data from the previous 72 hours. | See also: Recent months at Cunderdin Airport
Date/Time
WST
Temp
°C
App
Temp
°C
Dew
Point
°C
Rel
Hum
%
Delta-T
°C
Wind Press
QNH
hPa
Press
MSL
hPa
Rain since
9am
mm
Dir  Spd
km/h
Gust
km/h
Spd
kts
Gust
kts
18/10:00pm 14.9 11.9 10.7 76 2.2 NW 17 20 9 11 1011.4 1010.7 0.0
18/09:30pm 15.6 12.1 11.0 74 2.5 WNW 20 22 11 12 1011.6 1010.9 0.0
18/09:00pm 16.2 13.4 11.4 73 2.6 W 17 20 9 11 1011.8 1011.1 0.0
18/08:30pm 17.2 12.7 11.5 69 3.1 W 26 35 14 19 1012.1 1011.4 0.0
18/08:00pm 17.7 13.1 12.4 71 3.0 WSW 28 35 15 19 1012.1 1011.4 0.0
18/07:30pm 18.4 13.1 12.6 69 3.3 W 32 39 17 21 1012.0 1011.3 0.0
18/07:00pm 19.1 13.8 11.2 60 4.4 WSW 30 39 16 21 1011.9 1011.2 0.0
18/06:30pm 20.3 14.5 9.5 50 5.8 WSW 30 37 16 20 1011.3 1010.6 0.0
18/06:00pm 21.7 15.9 9.3 45 6.7 WSW 30 39 16 21 1010.7 1010.0 0.0
18/05:30pm 23.5 17.2 8.8 39 8.0 WSW 32 44 17 24 1010.3 1009.6 0.0
18/05:00pm 26.6 20.7 7.6 30 10.3 WSW 28 35 15 19 1009.7 1009.0 0.0
18/04:30pm 28.1 22.7 6.2 25 11.6 NW 24 33 13 18 1009.6 1008.9 0.0
18/04:00pm 28.1 22.7 6.2 25 11.6 NNW 24 32 13 17 1010.0 1009.3 0.0
18/03:30pm 28.4 23.7 5.9 24 11.9 WNW 20 32 11 17 1010.5 1009.8 0.0
18/03:00pm 28.7 23.5 5.5 23 12.2 WNW 22 35 12 19 1010.8 1010.1 0.0
18/02:30pm 28.6 23.7 6.7 25 11.7 NW 22 39 12 21 1011.1 1010.4 0.0
18/02:00pm 29.1 24.5 8.2 27 11.5 NW 22 33 12 18 1011.4 1010.7 0.0
18/01:30pm 27.7 23.1 8.1 29 10.7 NW 22 33 12 18 1011.9 1011.2 0.0
18/01:00pm 27.6 22.3 8.5 30 10.5 NW 26 37 14 20 1012.4 1011.8 0.0
18/12:30pm 27.0 21.7 8.4 31 10.2 NW 26 37 14 20 1013.0 1012.4 0.0
18/12:00pm 26.5 22.0 8.5 32 9.8 NW 22 32 12 17 1013.8 1013.2 0.0
18/11:30am 25.1 22.2 8.1 34 9.2 NW 13 24 7 13 1014.8 1014.1 0.0
18/11:00am 22.8 21.4 8.9 41 7.5 WNW 6 11 3 6 1015.3 1014.6 0.0
18/10:30am 20.5 19.8 8.5 46 6.3 WNW 2 7 1 4 1015.8 1015.1 0.0
18/10:00am 18.5 18.0 7.9 50 5.5 CALM 0 0 0 0 1016.5 1015.9 0.0
18/09:30am 17.2 16.2 7.5 53 4.9 ENE 2 6 1 3 1016.7 1016.1 0.0
18/09:00am 15.6 14.9 6.9 56 4.3 CALM 0 0 0 0 1017.3 1016.7 0.0
18/08:30am 14.4 13.6 6.3 58 3.9 CALM 0 0 0 0 1017.6 1017.0 0.0
18/08:00am 13.6 12.0 6.5 62 3.4 ESE 4 7 2 4 1017.4 1016.8 0.0
18/07:30am 12.3 11.7 7.4 72 2.4 CALM 0 0 0 0 1017.5 1016.9 0.0
18/07:00am 11.2 9.5 7.5 78 1.8 ENE 6 7 3 4 1017.0 1016.4 0.0
18/06:30am 11.1 10.5 7.4 78 1.8 CALM 0 0 0 0 1017.2 1016.6 0.0
18/06:00am 11.4 10.3 6.7 73 2.3 E 2 7 1 4 1017.1 1016.5 0.0
18/05:30am 11.2 10.4 6.3 72 2.3 CALM 0 0 0 0 1017.2 1016.6 0.0
18/05:00am 11.1 10.0 6.8 75 2.1 NE 2 6 1 3 1017.6 1017.0 0.0
18/04:30am 11.4 9.5 6.9 74 2.2 ENE 6 7 3 4 1017.5 1016.9 0.0
18/04:00am 10.6 8.7 7.5 81 1.5 NE 7 7 4 4 1017.6 1017.0 0.0
18/03:30am 11.1 9.3 7.2 77 1.9 NE 6 7 3 4 1018.1 1017.5 0.0
18/03:00am 11.7 11.0 7.0 73 2.3 CALM 0 2 0 1 1018.4 1017.8 0.0
18/02:30am 12.4 11.6 6.7 68 2.8 CALM 0 0 0 0 1018.8 1018.2 0.0
18/02:00am 12.4 10.5 6.5 67 2.8 ENE 6 7 3 4 1019.1 1018.5 0.0
18/01:30am 11.8 10.0 7.1 73 2.3 ENE 6 7 3 4 1019.4 1018.7 0.0
18/01:00am 11.3 9.4 6.8 74 2.2 NE 6 7 3 4 1019.7 1019.0 0.0
18/12:30am 10.5 8.4 6.8 78 1.8 NNE 7 7 4 4 1019.5 1018.8 0.0
18/12:00am 10.4 8.5 6.5 77 1.8 ENE 6 7 3 4 1019.5 1018.8 0.0
 
Date/Time
WST
Temp
°C
App
Temp
°C
Dew
Point
°C
Rel
Hum
%
Delta-T
°C
Wind Press
QNH
hPa
Press
MSL
hPa
Rain since
9am
mm
Dir  Spd
km/h
Gust
km/h
Spd
kts
Gust
kts
17/11:30pm 11.1 9.2 6.5 73 2.2 ENE 6 7 3 4 1020.2 1019.5 0.0
17/11:00pm 11.3 9.3 6.2 71 2.4 ENE 6 7 3 4 1020.5 1019.9 0.0
17/10:30pm 11.7 9.5 6.0 68 2.7 E 7 7 4 4 1021.0 1020.4 0.0
17/10:00pm 11.8 9.2 5.9 67 2.8 ENE 9 9 5 5 1021.1 1020.5 0.0
17/09:30pm 14.7 11.8 4.4 50 4.8 ESE 9 13 5 7 1021.1 1020.5 0.0
17/09:00pm 15.4 12.5 4.5 48 5.1 SE 9 13 5 7 1021.1 1020.5 0.0
17/08:30pm 15.7 12.4 4.4 47 5.3 SE 11 13 6 7 1021.2 1020.6 0.0
17/08:00pm 16.1 12.8 4.8 47 5.4 SE 11 13 6 7 1020.9 1020.3 0.0
17/07:30pm 16.4 13.5 4.8 46 5.6 SE 9 11 5 6 1021.0 1020.4 0.0
17/07:00pm 17.0 14.2 5.0 45 5.8 SE 9 13 5 7 1020.9 1020.3 0.0
17/06:30pm 17.6 15.1 4.6 42 6.3 SSE 7 9 4 5 1020.7 1020.1 0.0
17/06:00pm 18.3 15.4 4.5 40 6.6 SSE 9 11 5 6 1020.5 1019.9 0.0
17/05:30pm 19.7 17.1 4.2 36 7.5 SE 7 11 4 6 1020.2 1019.5 0.0
17/05:00pm 20.5 18.4 4.1 34 8.0 ESE 4 11 2 6 1020.2 1019.5 0.0
17/04:30pm 21.0 18.6 4.1 33 8.2 E 6 13 3 7 1020.2 1019.5 0.0
17/04:00pm 21.5 18.5 4.1 32 8.5 ESE 9 26 5 14 1020.2 1019.5 0.0
17/03:30pm 21.4 18.5 4.5 33 8.3 E 9 15 5 8 1020.4 1019.8 0.0
17/03:00pm 21.4 18.5 4.9 34 8.2 E 9 15 5 8 1020.5 1019.9 0.0
17/02:30pm 21.1 18.2 4.6 34 8.1 NE 9 15 5 8 1020.6 1020.0 0.0
17/02:00pm 20.6 17.0 5.0 36 7.7 SE 13 20 7 11 1020.9 1020.3 0.0
17/01:30pm 20.9 17.7 5.3 36 7.8 ENE 11 17 6 9 1021.4 1020.8 0.0
17/01:00pm 20.1 17.6 5.0 37 7.4 NE 7 13 4 7 1022.1 1021.5 0.0
17/12:30pm 19.7 17.0 5.4 39 7.1 E 9 20 5 11 1022.8 1022.2 0.0
17/12:00pm 19.1 15.2 5.2 40 6.8 E 15 20 8 11 1023.1 1022.5 0.0
17/11:30am 18.7 15.2 5.5 42 6.5 NE 13 22 7 12 1023.3 1022.7 0.0
17/11:00am 17.7 14.7 5.9 46 5.8 ENE 11 19 6 10 1023.7 1023.1 0.0
17/10:30am 17.5 14.3 7.0 50 5.3 E 13 17 7 9 1023.8 1023.2 0.0
17/10:00am 16.9 13.5 7.8 55 4.6 E 15 20 8 11 1024.1 1023.4 0.0
17/09:30am 16.0 13.0 7.7 58 4.2 E 13 20 7 11 1024.1 1023.4 0.0
17/09:00am 15.0 12.1 8.3 64 3.4 E 13 20 7 11 1023.9 1023.3 0.0
17/08:30am 13.8 11.4 8.6 71 2.6 E 11 15 6 8 1023.8 1023.2 0.0
17/08:00am 12.4 11.1 9.1 80 1.7 ESE 6 11 3 6 1023.5 1022.9 0.0
17/07:30am 10.4 10.2 9.0 91 0.7 CALM 0 0 0 0 1023.2 1022.6 0.0
17/07:00am 7.9 6.1 7.1 95 0.4 NE 6 7 3 4 1022.7 1022.1 0.0
17/06:30am 8.5 7.1 7.1 91 0.7 SSE 4 7 2 4 1022.5 1021.9 0.0
17/06:00am 8.3 7.3 7.2 93 0.5 SSE 2 9 1 5 1022.2 1021.6 0.0
17/05:30am 8.2 7.5 7.1 93 0.5 CALM 0 0 0 0 1021.7 1021.1 0.0
17/05:00am 9.6 9.2 8.2 91 0.7 CALM 0 0 0 0 1021.4 1020.8 0.0
17/04:30am 10.8 9.4 8.7 87 1.0 S 6 7 3 4 1021.2 1020.6 0.0
17/04:00am 11.0 9.8 9.4 90 0.8 SSW 6 9 3 5 1020.7 1020.1 0.0
17/03:30am 10.5 9.9 8.9 90 0.8 SW 2 6 1 3 1020.4 1019.8 0.0
17/03:00am 11.6 10.1 9.0 84 1.3 SSW 7 9 4 5 1020.2 1019.5 0.0
17/02:30am 11.2 9.9 9.1 87 1.1 SW 6 7 3 4 1020.0 1019.3 0.0
17/02:00am 12.8 11.8 10.2 84 1.4 SSE 6 9 3 5 1019.8 1019.1 0.0
17/01:30am 13.3 12.2 10.7 84 1.4 S 7 9 4 5 1020.0 1019.3 0.0
17/01:00am 14.0 13.4 12.2 89 1.0 SW 7 9 4 5 1020.1 1019.4 0.0
17/12:30am 13.7 14.6 12.9 95 0.4 CALM 0 0 0 0 1019.9 1019.2 0.0
17/12:00am 13.4 13.1 12.6 95 0.4 W 6 6 3 3 1019.7 1019.0 0.0
 
Date/Time
WST
Temp
°C
App
Temp
°C
Dew
Point
°C
Rel
Hum
%
Delta-T
°C
Wind Press
QNH
hPa
Press
MSL
hPa
Rain since
9am
mm
Dir  Spd
km/h
Gust
km/h
Spd
kts
Gust
kts
16/11:30pm 13.9 13.4 12.5 91 0.8 WSW 7 9 4 5 1019.6 1018.9 0.0
16/11:00pm 14.7 13.6 13.2 91 0.8 W 11 11 6 6 1019.6 1018.9 0.0
16/10:30pm 14.9 13.7 12.9 88 1.1 WNW 11 13 6 7 1019.5 1018.8 0.0
16/10:00pm 15.7 15.5 13.5 87 1.2 NW 7 9 4 5 1019.3 1018.6 0.0
16/09:30pm 15.8 15.1 13.3 85 1.4 W 9 13 5 7 1019.0 1018.4 0.0
16/09:00pm 15.8 14.0 13.3 85 1.4 W 15 17 8 9 1018.9 1018.3 0.0
16/08:30pm 16.0 14.5 13.1 83 1.6 W 13 19 7 10 1018.7 1018.1 0.0
16/08:00pm 16.1 13.4 13.4 84 1.5 WSW 20 28 11 15 1018.4 1017.8 0.0
16/07:30pm 17.3 12.9 13.0 76 2.4 SW 28 35 15 19 1017.9 1017.3 0.0
16/07:00pm 17.9 15.5 11.5 66 3.5 SW 15 19 8 10 1017.4 1016.8 0.0
16/06:30pm 17.7 15.3 11.5 67 3.4 WSW 15 19 8 10 1017.0 1016.4 0.0
16/06:00pm 17.7 13.9 11.0 65 3.7 W 22 30 12 16 1016.3 1015.7 0.0
16/05:30pm 18.5 13.9 11.1 62 4.1 WSW 26 32 14 17 1016.3 1015.7 0.0
16/05:00pm 18.7 11.0 11.5 63 4.0 SW 43 56 23 30 1015.9 1015.2 0.0
16/04:52pm 18.9 12.0 11.5 62 4.1 W 39 56 21 30 1015.7 1015.0 0.0
16/04:30pm 20.8 14.3 10.3 51 5.7 W 35 43 19 23 1015.2 1014.5 0.0
16/04:00pm 21.9 14.4 9.4 45 6.8 WSW 39 48 21 26 1015.0 1014.3 0.0
16/03:43pm 22.0 13.5 10.8 49 6.2 WSW 46 59 25 32 1014.7 1014.0 0.0
16/03:30pm 22.8 15.5 8.9 41 7.5 W 37 54 20 29 1014.2 1013.6 0.0
16/03:00pm 23.2 15.3 9.2 41 7.6 W 41 52 22 28 1014.0 1013.4 0.0
16/02:30pm 23.2 15.8 9.9 43 7.3 W 39 50 21 27 1013.9 1013.3 0.0
16/02:00pm 22.6 14.7 9.4 43 7.2 W 41 50 22 27 1013.9 1013.3 0.0
16/01:30pm 23.2 15.6 10.6 45 7.0 W 41 52 22 28 1014.0 1013.4 0.0
16/01:00pm 22.9 15.0 9.3 42 7.4 W 41 56 22 30 1014.0 1013.4 0.0
16/12:30pm 22.9 16.3 11.3 48 6.5 W 37 46 20 25 1013.8 1013.2 0.0
16/12:00pm 21.5 14.3 10.6 50 6.0 W 39 48 21 26 1014.2 1013.6 0.0
16/11:30am 21.4 14.4 11.4 53 5.6 W 39 48 21 26 1014.3 1013.7 0.0
16/11:00am 21.0 14.5 12.9 60 4.7 W 39 52 21 28 1014.2 1013.6 0.0
16/10:30am 19.5 13.4 14.1 71 3.1 W 39 50 21 27 1014.6 1013.9 0.0
16/10:00am 19.7 15.8 15.4 76 2.6 W 30 37 16 20 1014.5 1013.8 0.0
16/09:30am 18.1 15.5 15.9 87 1.3 WNW 24 32 13 17 1014.8 1014.1 0.0
16/09:00am 17.1 13.6 15.6 91 0.9 WNW 28 35 15 19 1014.8 1014.1 1.2
16/08:44am 17.0 14.3 15.7 92 0.8 WNW 24 33 13 18 1014.6 1013.9 1.2
16/08:30am 16.9 14.3 15.8 93 0.7 WNW 24 32 13 17 1014.5 1013.8 1.2
16/08:25am 16.7 14.7 15.6 93 0.6 WNW 20 28 11 15 1014.3 1013.7 1.2
16/08:02am 16.5 14.2 15.7 95 0.5 WNW 22 28 12 15 1013.9 1013.3 1.2
16/08:00am 16.5 14.2 15.7 95 0.5 WNW 22 28 12 15 1013.9 1013.3 1.2
16/07:51am 16.3 14.0 15.7 96 0.4 WNW 22 28 12 15 1013.8 1013.2 1.2
16/07:30am 15.9 14.1 15.6 98 0.2 WNW 19 24 10 13 1013.6 1013.0 1.0
16/07:04am 15.7 13.8 15.2 97 0.3 NW 19 26 10 14 1013.3 1012.7 0.4
16/07:00am 15.7 13.8 15.2 97 0.3 NW 19 26 10 14 1013.2 1012.6 0.4
16/06:54am 15.8 13.9 15.2 96 0.4 NW 19 24 10 13 1013.1 1012.5 0.2
16/06:30am 15.7 13.6 14.7 94 0.6 NW 19 22 10 12 1012.8 1012.2 0.0
16/06:00am 15.4 13.2 14.4 94 0.6 NW 19 24 10 13 1012.6 1012.0 0.0
16/05:30am 15.7 14.0 14.7 94 0.6 NW 17 24 9 13 1012.4 1011.8 0.0
16/05:00am 15.7 14.0 14.7 94 0.6 NW 17 26 9 14 1012.4 1011.8 0.0
16/04:30am 15.8 14.1 14.7 93 0.6 NW 17 20 9 11 1012.2 1011.5 0.0
16/04:00am 15.8 14.1 14.7 93 0.6 WNW 17 20 9 11 1012.3 1011.7 0.0
16/03:45am 15.7 13.5 14.9 95 0.5 NW 20 30 11 16 1012.2 1011.5 0.0
16/03:30am 15.7 11.2 14.9 95 0.5 WNW 32 39 17 21 1012.3 1011.7 0.0
16/03:06am 15.5 13.1 14.4 93 0.6 NW 20 28 11 15 1012.2 1011.5 0.0
16/03:00am 15.6 13.4 14.3 92 0.7 NW 19 26 10 14 1012.2 1011.5 0.0
16/02:30am 15.3 13.8 14.3 94 0.6 NNW 15 17 8 9 1012.2 1011.5 0.0
16/02:00am 15.5 14.9 14.5 94 0.6 NW 11 15 6 8 1012.3 1011.7 0.0
16/01:30am 15.4 14.7 14.4 94 0.6 NW 11 13 6 7 1012.4 1011.8 0.0
16/01:00am 15.6 14.1 14.3 92 0.7 WNW 15 17 8 9 1012.4 1011.8 0.0
16/12:30am 16.1 14.3 14.5 90 0.9 W 17 20 9 11 1012.5 1011.9 0.0
16/12:00am 16.0 14.2 14.4 90 0.9 WNW 17 20 9 11 1012.8 1012.2 0.0
 
Date/Time
WST
Temp
°C
App
Temp
°C
Dew
Point
°C
Rel
Hum
%
Delta-T
°C
Wind Press
QNH
hPa
Press
MSL
hPa
Rain since
9am
mm
Dir  Spd
km/h
Gust
km/h
Spd
kts
Gust
kts
15/11:30pm 16.2 14.0 14.4 89 1.0 WNW 19 20 10 11 1013.0 1012.4 0.0
15/11:00pm 16.7 14.3 14.5 87 1.3 W 20 24 11 13 1013.2 1012.6 0.0
15/10:30pm 16.8 13.3 14.4 86 1.4 W 26 32 14 17 1013.3 1012.7 0.0

Other formats

Comma delimited format used in spreadsheet applications
http://www.bom.gov.au/fwo/IDW60801/IDW60801.95625.axf

JavaScript Object Notation format (JSON) in row-major order
http://www.bom.gov.au/fwo/IDW60801/IDW60801.95625.json

Data quality

Most of these data are generated automatically and are frequently updated. Quality checks on data are not normally performed. It is possible for incorrect values to appear. Refer to information at About Latest Weather Observations and please check the disclaimer before using these data.